sensor_id;sensor_type;location;lat;lon;timestamp;temperature;humidity
14022;DHT22;7086;48.116;11.580;2023-03-01T00:01:16;3.60;74.80
14022;DHT22;7086;48.116;11.580;2023-03-01T00:03:44;3.60;75.00
14022;DHT22;7086;48.116;11.580;2023-03-01T00:06:12;3.60;75.00
14022;DHT22;7086;48.116;11.580;2023-03-01T00:08:40;3.60;74.80
14022;DHT22;7086;48.116;11.580;2023-03-01T00:11:10;3.60;75.00
14022;DHT22;7086;48.116;11.580;2023-03-01T00:13:41;3.70;75.20
14022;DHT22;7086;48.116;11.580;2023-03-01T00:16:26;3.70;75.00
14022;DHT22;7086;48.116;11.580;2023-03-01T00:19:30;3.70;74.60
14022;DHT22;7086;48.116;11.580;2023-03-01T00:21:58;3.60;74.40
14022;DHT22;7086;48.116;11.580;2023-03-01T00:24:25;3.60;74.50
14022;DHT22;7086;48.116;11.580;2023-03-01T00:26:53;3.60;74.90
14022;DHT22;7086;48.116;11.580;2023-03-01T00:29:22;3.90;75.40
14022;DHT22;7086;48.116;11.580;2023-03-01T00:31:52;3.70;75.20
14022;DHT22;7086;48.116;11.580;2023-03-01T00:34:19;3.70;75.00
14022;DHT22;7086;48.116;11.580;2023-03-01T00:36:46;3.60;74.90
14022;DHT22;7086;48.116;11.580;2023-03-01T00:39:14;3.80;75.00
14022;DHT22;7086;48.116;11.580;2023-03-01T00:41:42;3.70;75.10
14022;DHT22;7086;48.116;11.580;2023-03-01T00:44:10;3.70;74.90
14022;DHT22;7086;48.116;11.580;2023-03-01T00:46:38;3.70;75.20
14022;DHT22;7086;48.116;11.580;2023-03-01T00:49:07;3.60;74.80
14022;DHT22;7086;48.116;11.580;2023-03-01T00:51:34;3.60;74.40
14022;DHT22;7086;48.116;11.580;2023-03-01T00:54:02;2.50;74.00
14022;DHT22;7086;48.116;11.580;2023-03-01T00:56:31;3.60;75.00
14022;DHT22;7086;48.116;11.580;2023-03-01T00:58:58;3.60;75.20
14022;DHT22;7086;48.116;11.580;2023-03-01T01:01:28;3.60;75.10
14022;DHT22;7086;48.116;11.580;2023-03-01T01:03:58;3.60;75.30
14022;DHT22;7086;48.116;11.580;2023-03-01T01:06:30;3.50;74.80
14022;DHT22;7086;48.116;11.580;2023-03-01T01:08:59;3.50;74.80
14022;DHT22;7086;48.116;11.580;2023-03-01T01:11:28;3.50;75.20
14022;DHT22;7086;48.116;11.580;2023-03-01T01:13:57;3.50;75.10
14022;DHT22;7086;48.116;11.580;2023-03-01T01:16:42;3.40;75.00
14022;DHT22;7086;48.116;11.580;2023-03-01T01:19:51;3.60;75.30
14022;DHT22;7086;48.116;11.580;2023-03-01T01:23:03;3.80;76.10
14022;DHT22;7086;48.116;11.580;2023-03-01T01:26:15;3.60;75.50
14022;DHT22;7086;48.116;11.580;2023-03-01T01:30:04;3.60;74.50
14022;DHT22;7086;48.116;11.580;2023-03-01T01:34:26;3.50;74.30
14022;DHT22;7086;48.116;11.580;2023-03-01T01:36:47;3.60;75.40
14022;DHT22;7086;48.116;11.580;2023-03-01T01:43:25;3.50;74.80
14022;DHT22;7086;48.116;11.580;2023-03-01T01:45:57;3.50;74.60
14022;DHT22;7086;48.116;11.580;2023-03-01T01:48:34;3.50;74.90
14022;DHT22;7086;48.116;11.580;2023-03-01T01:51:12;3.40;75.00
14022;DHT22;7086;48.116;11.580;2023-03-01T01:53:59;3.40;74.90
14022;DHT22;7086;48.116;11.580;2023-03-01T01:56:36;3.40;74.90
14022;DHT22;7086;48.116;11.580;2023-03-01T01:59:05;3.50;75.10
14022;DHT22;7086;48.116;11.580;2023-03-01T02:01:47;3.40;74.00
14022;DHT22;7086;48.116;11.580;2023-03-01T02:04:14;3.30;74.30
14022;DHT22;7086;48.116;11.580;2023-03-01T02:06:46;3.40;75.00
14022;DHT22;7086;48.116;11.580;2023-03-01T02:09:22;3.40;75.50
14022;DHT22;7086;48.116;11.580;2023-03-01T02:11:52;3.40;75.50
14022;DHT22;7086;48.116;11.580;2023-03-01T02:14:21;3.30;75.40
14022;DHT22;7086;48.116;11.580;2023-03-01T02:16:59;3.40;74.80
14022;DHT22;7086;48.116;11.580;2023-03-01T02:19:35;3.40;74.90
14022;DHT22;7086;48.116;11.580;2023-03-01T02:22:17;3.30;75.60
14022;DHT22;7086;48.116;11.580;2023-03-01T02:24:57;3.40;75.80
14022;DHT22;7086;48.116;11.580;2023-03-01T02:27:41;3.40;75.90
14022;DHT22;7086;48.116;11.580;2023-03-01T02:30:21;3.30;75.00
14022;DHT22;7086;48.116;11.580;2023-03-01T02:32:50;3.30;75.50
14022;DHT22;7086;48.116;11.580;2023-03-01T02:35:18;3.30;75.70
14022;DHT22;7086;48.116;11.580;2023-03-01T02:37:47;3.30;75.90
14022;DHT22;7086;48.116;11.580;2023-03-01T02:40:16;3.60;76.00
14022;DHT22;7086;48.116;11.580;2023-03-01T02:42:50;3.30;75.30
14022;DHT22;7086;48.116;11.580;2023-03-01T02:45:22;3.30;75.90
14022;DHT22;7086;48.116;11.580;2023-03-01T02:47:50;3.30;75.50
14022;DHT22;7086;48.116;11.580;2023-03-01T02:50:33;3.30;75.80
14022;DHT22;7086;48.116;11.580;2023-03-01T02:53:16;3.60;76.00
14022;DHT22;7086;48.116;11.580;2023-03-01T02:55:51;3.20;75.60
14022;DHT22;7086;48.116;11.580;2023-03-01T02:58:18;3.20;75.50
14022;DHT22;7086;48.116;11.580;2023-03-01T03:00:47;3.20;75.50
14022;DHT22;7086;48.116;11.580;2023-03-01T03:03:15;3.20;75.40
14022;DHT22;7086;48.116;11.580;2023-03-01T03:05:45;3.20;75.60
14022;DHT22;7086;48.116;11.580;2023-03-01T03:08:14;3.20;75.50
14022;DHT22;7086;48.116;11.580;2023-03-01T03:10:49;3.20;75.60
14022;DHT22;7086;48.116;11.580;2023-03-01T03:13:16;3.10;75.10
14022;DHT22;7086;48.116;11.580;2023-03-01T03:15:44;3.20;75.20
14022;DHT22;7086;48.116;11.580;2023-03-01T03:18:14;2.10;74.70
14022;DHT22;7086;48.116;11.580;2023-03-01T03:20:44;3.20;75.70
14022;DHT22;7086;48.116;11.580;2023-03-01T03:23:12;3.20;75.80
14022;DHT22;7086;48.116;11.580;2023-03-01T03:25:40;3.20;75.80
14022;DHT22;7086;48.116;11.580;2023-03-01T03:28:08;3.20;74.90
14022;DHT22;7086;48.116;11.580;2023-03-01T03:30:37;3.10;75.00
14022;DHT22;7086;48.116;11.580;2023-03-01T03:33:09;3.10;75.90
14022;DHT22;7086;48.116;11.580;2023-03-01T03:35:40;3.20;76.00
14022;DHT22;7086;48.116;11.580;2023-03-01T03:38:12;3.20;75.40
14022;DHT22;7086;48.116;11.580;2023-03-01T03:40:46;3.20;75.50
14022;DHT22;7086;48.116;11.580;2023-03-01T03:43:17;3.20;75.50
14022;DHT22;7086;48.116;11.580;2023-03-01T03:45:48;3.10;75.10
14022;DHT22;7086;48.116;11.580;2023-03-01T03:48:18;3.10;75.40
14022;DHT22;7086;48.116;11.580;2023-03-01T03:50:49;3.10;74.60
14022;DHT22;7086;48.116;11.580;2023-03-01T03:53:18;3.40;75.80
14022;DHT22;7086;48.116;11.580;2023-03-01T03:55:46;3.10;75.40
14022;DHT22;7086;48.116;11.580;2023-03-01T03:58:19;3.00;74.90
14022;DHT22;7086;48.116;11.580;2023-03-01T04:01:59;3.00;74.40
14022;DHT22;7086;48.116;11.580;2023-03-01T04:04:29;2.90;75.60
14022;DHT22;7086;48.116;11.580;2023-03-01T04:07:49;2.90;75.00
14022;DHT22;7086;48.116;11.580;2023-03-01T04:14:19;2.90;75.80
14022;DHT22;7086;48.116;11.580;2023-03-01T04:17:19;2.80;74.00
14022;DHT22;7086;48.116;11.580;2023-03-01T04:20:42;3.00;75.40
14022;DHT22;7086;48.116;11.580;2023-03-01T04:23:37;2.80;75.40
14022;DHT22;7086;48.116;11.580;2023-03-01T04:26:45;2.70;74.80
14022;DHT22;7086;48.116;11.580;2023-03-01T04:29:56;2.80;75.40
14022;DHT22;7086;48.116;11.580;2023-03-01T04:33:17;2.80;75.20
14022;DHT22;7086;48.116;11.580;2023-03-01T04:36:40;2.70;75.20
14022;DHT22;7086;48.116;11.580;2023-03-01T04:39:57;2.70;75.30
14022;DHT22;7086;48.116;11.580;2023-03-01T04:45:26;2.00;74.00
14022;DHT22;7086;48.116;11.580;2023-03-01T04:47:44;1.60;75.10
14022;DHT22;7086;48.116;11.580;2023-03-01T04:50:41;2.60;75.70
14022;DHT22;7086;48.116;11.580;2023-03-01T04:53:17;1.70;73.60
14022;DHT22;7086;48.116;11.580;2023-03-01T04:59:02;1.20;75.10
14022;DHT22;7086;48.116;11.580;2023-03-01T05:01:59;2.60;75.30
14022;DHT22;7086;48.116;11.580;2023-03-01T05:07:21;2.50;75.70
14022;DHT22;7086;48.116;11.580;2023-03-01T05:09:51;2.50;75.20
14022;DHT22;7086;48.116;11.580;2023-03-01T05:12:20;2.50;75.60
14022;DHT22;7086;48.116;11.580;2023-03-01T05:14:50;2.50;75.90
14022;DHT22;7086;48.116;11.580;2023-03-01T05:40:26;1.60;75.50
14022;DHT22;7086;48.116;11.580;2023-03-01T05:42:56;3.00;75.90
14022;DHT22;7086;48.116;11.580;2023-03-01T05:45:27;2.20;75.90
14022;DHT22;7086;48.116;11.580;2023-03-01T05:51:52;-0.20;74.30
